sensor_id;sensor_type;location;lat;lon;timestamp;P1;durP1;ratioP1;P2;durP2;ratioP2
22660;SDS011;11497;52.222;21.246;2023-10-19T00:00:57;90.05;;;45.28;;
22660;SDS011;11497;52.222;21.246;2023-10-19T00:03:35;92.63;;;44.60;;
22660;SDS011;11497;52.222;21.246;2023-10-19T00:06:03;91.70;;;46.05;;
22660;SDS011;11497;52.222;21.246;2023-10-19T00:08:32;91.40;;;47.03;;
22660;SDS011;11497;52.222;21.246;2023-10-19T00:11:08;94.93;;;46.55;;
22660;SDS011;11497;52.222;21.246;2023-10-19T00:13:53;92.10;;;46.30;;
22660;SDS011;11497;52.222;21.246;2023-10-19T00:16:21;92.60;;;46.90;;
22660;SDS011;11497;52.222;21.246;2023-10-19T00:18:51;93.28;;;43.70;;
22660;SDS011;11497;52.222;21.246;2023-10-19T00:21:19;87.35;;;44.58;;
22660;SDS011;11497;52.222;21.246;2023-10-19T00:23:52;89.88;;;44.70;;
22660;SDS011;11497;52.222;21.246;2023-10-19T00:26:24;90.53;;;45.92;;
22660;SDS011;11497;52.222;21.246;2023-10-19T00:28:57;94.45;;;45.78;;
22660;SDS011;11497;52.222;21.246;2023-10-19T00:31:25;95.40;;;47.58;;
22660;SDS011;11497;52.222;21.246;2023-10-19T00:33:54;102.65;;;48.22;;
22660;SDS011;11497;52.222;21.246;2023-10-19T00:36:23;99.82;;;50.58;;
22660;SDS011;11497;52.222;21.246;2023-10-19T00:38:53;94.97;;;47.47;;
22660;SDS011;11497;52.222;21.246;2023-10-19T00:41:24;105.70;;;50.97;;
22660;SDS011;11497;52.222;21.246;2023-10-19T00:43:59;104.50;;;50.75;;
22660;SDS011;11497;52.222;21.246;2023-10-19T00:46:32;102.47;;;49.42;;
22660;SDS011;11497;52.222;21.246;2023-10-19T00:49:05;69.68;;;37.72;;
22660;SDS011;11497;52.222;21.246;2023-10-19T00:51:39;101.40;;;50.92;;
22660;SDS011;11497;52.222;21.246;2023-10-19T00:54:14;116.75;;;51.53;;
22660;SDS011;11497;52.222;21.246;2023-10-19T00:56:43;99.25;;;49.90;;
22660;SDS011;11497;52.222;21.246;2023-10-19T00:59:18;99.60;;;50.25;;
22660;SDS011;11497;52.222;21.246;2023-10-19T01:01:57;96.15;;;47.95;;
22660;SDS011;11497;52.222;21.246;2023-10-19T01:04:44;97.20;;;47.10;;
22660;SDS011;11497;52.222;21.246;2023-10-19T01:07:13;100.13;;;47.45;;
22660;SDS011;11497;52.222;21.246;2023-10-19T01:09:49;101.45;;;49.00;;
22660;SDS011;11497;52.222;21.246;2023-10-19T01:12:21;104.05;;;48.97;;
22660;SDS011;11497;52.222;21.246;2023-10-19T01:17:47;103.97;;;50.92;;
22660;SDS011;11497;52.222;21.246;2023-10-19T01:20:22;102.50;;;48.90;;
22660;SDS011;11497;52.222;21.246;2023-10-19T01:23:09;99.20;;;50.22;;
22660;SDS011;11497;52.222;21.246;2023-10-19T01:28:17;100.88;;;48.03;;
22660;SDS011;11497;52.222;21.246;2023-10-19T01:30:45;93.90;;;48.03;;
22660;SDS011;11497;52.222;21.246;2023-10-19T01:33:19;93.45;;;48.00;;
22660;SDS011;11497;52.222;21.246;2023-10-19T01:35:47;95.50;;;48.55;;
22660;SDS011;11497;52.222;21.246;2023-10-19T01:38:33;92.88;;;46.42;;
22660;SDS011;11497;52.222;21.246;2023-10-19T01:41:01;96.93;;;48.53;;
22660;SDS011;11497;52.222;21.246;2023-10-19T01:43:33;99.93;;;47.20;;
22660;SDS011;11497;52.222;21.246;2023-10-19T01:46:03;95.90;;;48.45;;
22660;SDS011;11497;52.222;21.246;2023-10-19T01:48:43;97.47;;;48.05;;
22660;SDS011;11497;52.222;21.246;2023-10-19T01:51:11;95.00;;;47.05;;
22660;SDS011;11497;52.222;21.246;2023-10-19T01:53:40;91.50;;;47.25;;
22660;SDS011;11497;52.222;21.246;2023-10-19T01:56:12;95.68;;;48.60;;
22660;SDS011;11497;52.222;21.246;2023-10-19T01:58:41;96.63;;;48.42;;
22660;SDS011;11497;52.222;21.246;2023-10-19T02:01:09;98.00;;;48.03;;
22660;SDS011;11497;52.222;21.246;2023-10-19T02:03:40;99.60;;;47.20;;
22660;SDS011;11497;52.222;21.246;2023-10-19T02:06:12;107.35;;;48.75;;
22660;SDS011;11497;52.222;21.246;2023-10-19T02:08:51;95.97;;;47.05;;
22660;SDS011;11497;52.222;21.246;2023-10-19T02:11:20;87.75;;;45.38;;
22660;SDS011;11497;52.222;21.246;2023-10-19T02:13:49;88.13;;;45.95;;
22660;SDS011;11497;52.222;21.246;2023-10-19T02:16:18;94.13;;;45.05;;
22660;SDS011;11497;52.222;21.246;2023-10-19T02:18:50;88.88;;;44.78;;
22660;SDS011;11497;52.222;21.246;2023-10-19T02:21:18;93.22;;;45.95;;
22660;SDS011;11497;52.222;21.246;2023-10-19T02:23:49;84.40;;;43.80;;
22660;SDS011;11497;52.222;21.246;2023-10-19T02:26:18;89.15;;;44.00;;
22660;SDS011;11497;52.222;21.246;2023-10-19T02:28:47;86.07;;;43.47;;
22660;SDS011;11497;52.222;21.246;2023-10-19T02:31:17;87.95;;;43.92;;
22660;SDS011;11497;52.222;21.246;2023-10-19T02:33:52;91.38;;;45.20;;
22660;SDS011;11497;52.222;21.246;2023-10-19T02:36:27;81.82;;;43.58;;
22660;SDS011;11497;52.222;21.246;2023-10-19T02:39:05;93.38;;;43.72;;
22660;SDS011;11497;52.222;21.246;2023-10-19T02:41:37;89.13;;;45.28;;
22660;SDS011;11497;52.222;21.246;2023-10-19T02:44:09;80.15;;;42.08;;
22660;SDS011;11497;52.222;21.246;2023-10-19T02:46:47;86.13;;;42.65;;
22660;SDS011;11497;52.222;21.246;2023-10-19T02:49:18;81.40;;;43.40;;
22660;SDS011;11497;52.222;21.246;2023-10-19T02:51:50;81.40;;;42.60;;
22660;SDS011;11497;52.222;21.246;2023-10-19T02:54:22;81.32;;;41.67;;
22660;SDS011;11497;52.222;21.246;2023-10-19T02:56:52;82.38;;;43.40;;
22660;SDS011;11497;52.222;21.246;2023-10-19T02:59:21;86.90;;;41.53;;
22660;SDS011;11497;52.222;21.246;2023-10-19T03:01:51;82.85;;;41.92;;
22660;SDS011;11497;52.222;21.246;2023-10-19T03:04:19;92.38;;;43.03;;
22660;SDS011;11497;52.222;21.246;2023-10-19T03:06:47;84.15;;;42.10;;
22660;SDS011;11497;52.222;21.246;2023-10-19T03:09:16;82.10;;;41.35;;
22660;SDS011;11497;52.222;21.246;2023-10-19T03:11:56;89.47;;;42.78;;
22660;SDS011;11497;52.222;21.246;2023-10-19T03:14:26;86.88;;;41.80;;
22660;SDS011;11497;52.222;21.246;2023-10-19T03:16:55;74.07;;;40.63;;
22660;SDS011;11497;52.222;21.246;2023-10-19T03:19:23;77.10;;;39.47;;
22660;SDS011;11497;52.222;21.246;2023-10-19T03:21:52;90.03;;;43.83;;
22660;SDS011;11497;52.222;21.246;2023-10-19T03:24:22;79.07;;;41.85;;
22660;SDS011;11497;52.222;21.246;2023-10-19T03:27:03;78.13;;;40.72;;
22660;SDS011;11497;52.222;21.246;2023-10-19T03:29:44;78.55;;;41.35;;
22660;SDS011;11497;52.222;21.246;2023-10-19T03:32:13;82.35;;;41.05;;
22660;SDS011;11497;52.222;21.246;2023-10-19T03:34:44;79.38;;;40.70;;
22660;SDS011;11497;52.222;21.246;2023-10-19T03:37:15;79.30;;;41.08;;
22660;SDS011;11497;52.222;21.246;2023-10-19T03:39:46;86.00;;;40.60;;
22660;SDS011;11497;52.222;21.246;2023-10-19T03:42:14;74.35;;;39.72;;
22660;SDS011;11497;52.222;21.246;2023-10-19T03:44:41;89.30;;;40.10;;
22660;SDS011;11497;52.222;21.246;2023-10-19T03:47:16;84.85;;;42.00;;
22660;SDS011;11497;52.222;21.246;2023-10-19T03:49:47;83.68;;;42.33;;
22660;SDS011;11497;52.222;21.246;2023-10-19T03:52:16;84.32;;;42.15;;
22660;SDS011;11497;52.222;21.246;2023-10-19T03:54:43;82.82;;;41.92;;
22660;SDS011;11497;52.222;21.246;2023-10-19T03:57:12;88.28;;;44.65;;
22660;SDS011;11497;52.222;21.246;2023-10-19T03:59:50;87.57;;;44.25;;
22660;SDS011;11497;52.222;21.246;2023-10-19T04:02:23;88.10;;;43.60;;
22660;SDS011;11497;52.222;21.246;2023-10-19T04:04:52;87.75;;;42.63;;
22660;SDS011;11497;52.222;21.246;2023-10-19T04:07:22;82.57;;;43.75;;
22660;SDS011;11497;52.222;21.246;2023-10-19T04:09:53;90.28;;;43.95;;
22660;SDS011;11497;52.222;21.246;2023-10-19T04:12:34;87.05;;;45.15;;
22660;SDS011;11497;52.222;21.246;2023-10-19T04:15:03;94.00;;;46.75;;
22660;SDS011;11497;52.222;21.246;2023-10-19T04:17:44;94.32;;;45.28;;
22660;SDS011;11497;52.222;21.246;2023-10-19T04:20:13;91.70;;;45.72;;
22660;SDS011;11497;52.222;21.246;2023-10-19T04:22:47;97.45;;;45.47;;
22660;SDS011;11497;52.222;21.246;2023-10-19T04:25:16;87.63;;;44.53;;
22660;SDS011;11497;52.222;21.246;2023-10-19T04:27:46;89.47;;;45.95;;
22660;SDS011;11497;52.222;21.246;2023-10-19T04:30:16;87.60;;;45.83;;
22660;SDS011;11497;52.222;21.246;2023-10-19T04:32:50;89.25;;;44.55;;
22660;SDS011;11497;52.222;21.246;2023-10-19T04:35:21;92.20;;;46.33;;
22660;SDS011;11497;52.222;21.246;2023-10-19T04:37:53;92.68;;;45.47;;
22660;SDS011;11497;52.222;21.246;2023-10-19T04:40:21;92.25;;;46.25;;
22660;SDS011;11497;52.222;21.246;2023-10-19T04:42:55;103.72;;;48.08;;
22660;SDS011;11497;52.222;21.246;2023-10-19T04:45:23;102.60;;;46.97;;
22660;SDS011;11497;52.222;21.246;2023-10-19T04:47:52;118.10;;;51.80;;
22660;SDS011;11497;52.222;21.246;2023-10-19T04:50:22;127.05;;;53.83;;
22660;SDS011;11497;52.222;21.246;2023-10-19T04:52:49;124.85;;;54.80;;
22660;SDS011;11497;52.222;21.246;2023-10-19T04:55:17;166.68;;;61.88;;
22660;SDS011;11497;52.222;21.246;2023-10-19T04:57:45;194.32;;;71.30;;
22660;SDS011;11497;52.222;21.246;2023-10-19T05:00:13;192.55;;;71.68;;
22660;SDS011;11497;52.222;21.246;2023-10-19T05:02:42;192.25;;;73.63;;
22660;SDS011;11497;52.222;21.246;2023-10-19T05:05:10;196.18;;;75.43;;
22660;SDS011;11497;52.222;21.246;2023-10-19T05:07:38;172.32;;;69.72;;
22660;SDS011;11497;52.222;21.246;2023-10-19T05:10:06;169.60;;;66.47;;
22660;SDS011;11497;52.222;21.246;2023-10-19T05:12:34;165.15;;;67.38;;
22660;SDS011;11497;52.222;21.246;2023-10-19T05:15:02;151.40;;;61.88;;
22660;SDS011;11497;52.222;21.246;2023-10-19T05:17:32;140.60;;;59.97;;
22660;SDS011;11497;52.222;21.246;2023-10-19T05:20:00;133.55;;;59.33;;
22660;SDS011;11497;52.222;21.246;2023-10-19T05:22:29;136.38;;;58.55;;
22660;SDS011;11497;52.222;21.246;2023-10-19T05:24:59;134.77;;;59.33;;
22660;SDS011;11497;52.222;21.246;2023-10-19T05:27:28;133.73;;;58.15;;
22660;SDS011;11497;52.222;21.246;2023-10-19T05:29:55;129.73;;;57.08;;
22660;SDS011;11497;52.222;21.246;2023-10-19T05:32:23;123.22;;;56.20;;
22660;SDS011;11497;52.222;21.246;2023-10-19T05:34:51;126.30;;;55.30;;
22660;SDS011;11497;52.222;21.246;2023-10-19T05:37:19;126.38;;;56.08;;
22660;SDS011;11497;52.222;21.246;2023-10-19T05:39:47;128.85;;;55.88;;
22660;SDS011;11497;52.222;21.246;2023-10-19T05:42:18;118.05;;;53.50;;
22660;SDS011;11497;52.222;21.246;2023-10-19T05:44:47;115.55;;;50.00;;
22660;SDS011;11497;52.222;21.246;2023-10-19T05:47:14;113.03;;;51.40;;
22660;SDS011;11497;52.222;21.246;2023-10-19T05:49:42;112.30;;;54.05;;
22660;SDS011;11497;52.222;21.246;2023-10-19T05:52:10;142.75;;;66.07;;
22660;SDS011;11497;52.222;21.246;2023-10-19T05:54:38;189.70;;;82.97;;
22660;SDS011;11497;52.222;21.246;2023-10-19T05:57:07;163.73;;;74.65;;
22660;SDS011;11497;52.222;21.246;2023-10-19T05:59:35;155.63;;;75.60;;
22660;SDS011;11497;52.222;21.246;2023-10-19T06:02:03;146.15;;;70.53;;
22660;SDS011;11497;52.222;21.246;2023-10-19T06:04:34;145.18;;;68.78;;
22660;SDS011;11497;52.222;21.246;2023-10-19T06:07:03;148.77;;;66.65;;
22660;SDS011;11497;52.222;21.246;2023-10-19T06:09:31;128.05;;;60.25;;
22660;SDS011;11497;52.222;21.246;2023-10-19T06:11:58;99.20;;;50.35;;
22660;SDS011;11497;52.222;21.246;2023-10-19T06:14:27;105.22;;;49.55;;
22660;SDS011;11497;52.222;21.246;2023-10-19T06:16:57;105.88;;;49.65;;
22660;SDS011;11497;52.222;21.246;2023-10-19T06:19:25;94.65;;;45.70;;
22660;SDS011;11497;52.222;21.246;2023-10-19T06:21:53;87.50;;;44.15;;
22660;SDS011;11497;52.222;21.246;2023-10-19T06:24:21;94.10;;;46.80;;
22660;SDS011;11497;52.222;21.246;2023-10-19T06:26:49;91.63;;;47.13;;
22660;SDS011;11497;52.222;21.246;2023-10-19T06:29:16;99.47;;;47.35;;
22660;SDS011;11497;52.222;21.246;2023-10-19T06:31:44;90.85;;;46.88;;
22660;SDS011;11497;52.222;21.246;2023-10-19T06:34:12;82.97;;;45.30;;
22660;SDS011;11497;52.222;21.246;2023-10-19T06:36:41;91.75;;;46.78;;
22660;SDS011;11497;52.222;21.246;2023-10-19T06:39:09;106.82;;;48.17;;
22660;SDS011;11497;52.222;21.246;2023-10-19T06:41:40;107.50;;;53.05;;
22660;SDS011;11497;52.222;21.246;2023-10-19T06:44:07;102.18;;;49.90;;
22660;SDS011;11497;52.222;21.246;2023-10-19T06:46:35;96.32;;;49.42;;
22660;SDS011;11497;52.222;21.246;2023-10-19T06:49:03;91.32;;;47.47;;
22660;SDS011;11497;52.222;21.246;2023-10-19T06:51:31;90.43;;;45.17;;
22660;SDS011;11497;52.222;21.246;2023-10-19T06:54:00;85.93;;;44.13;;
22660;SDS011;11497;52.222;21.246;2023-10-19T06:56:28;79.55;;;42.67;;
22660;SDS011;11497;52.222;21.246;2023-10-19T06:58:57;79.35;;;43.13;;
22660;SDS011;11497;52.222;21.246;2023-10-19T07:01:25;71.30;;;37.28;;
22660;SDS011;11497;52.222;21.246;2023-10-19T07:03:56;67.13;;;35.70;;
22660;SDS011;11497;52.222;21.246;2023-10-19T07:06:25;61.88;;;33.03;;
22660;SDS011;11497;52.222;21.246;2023-10-19T07:08:53;64.13;;;35.17;;
22660;SDS011;11497;52.222;21.246;2023-10-19T07:11:21;68.18;;;35.05;;
22660;SDS011;11497;52.222;21.246;2023-10-19T07:13:50;71.63;;;34.60;;
22660;SDS011;11497;52.222;21.246;2023-10-19T07:16:18;60.10;;;33.00;;
22660;SDS011;11497;52.222;21.246;2023-10-19T07:18:47;62.83;;;32.45;;
22660;SDS011;11497;52.222;21.246;2023-10-19T07:21:14;55.10;;;29.60;;
22660;SDS011;11497;52.222;21.246;2023-10-19T07:23:44;49.55;;;29.02;;
22660;SDS011;11497;52.222;21.246;2023-10-19T07:26:12;51.92;;;29.50;;
22660;SDS011;11497;52.222;21.246;2023-10-19T07:28:41;50.03;;;27.77;;
22660;SDS011;11497;52.222;21.246;2023-10-19T07:31:09;54.42;;;27.52;;
22660;SDS011;11497;52.222;21.246;2023-10-19T07:33:42;48.85;;;27.10;;
22660;SDS011;11497;52.222;21.246;2023-10-19T07:36:13;57.83;;;28.42;;
22660;SDS011;11497;52.222;21.246;2023-10-19T07:38:41;46.22;;;25.23;;
22660;SDS011;11497;52.222;21.246;2023-10-19T07:41:09;40.92;;;24.20;;
22660;SDS011;11497;52.222;21.246;2023-10-19T07:43:37;39.97;;;24.70;;
22660;SDS011;11497;52.222;21.246;2023-10-19T07:46:05;35.45;;;22.58;;
22660;SDS011;11497;52.222;21.246;2023-10-19T07:48:35;34.85;;;21.95;;
22660;SDS011;11497;52.222;21.246;2023-10-19T07:51:03;34.80;;;21.83;;
22660;SDS011;11497;52.222;21.246;2023-10-19T07:53:30;32.40;;;20.48;;
22660;SDS011;11497;52.222;21.246;2023-10-19T07:55:58;33.28;;;21.58;;
22660;SDS011;11497;52.222;21.246;2023-10-19T07:58:26;32.45;;;20.13;;
22660;SDS011;11497;52.222;21.246;2023-10-19T08:00:54;34.33;;;20.10;;
22660;SDS011;11497;52.222;21.246;2023-10-19T08:03:23;33.17;;;21.40;;
22660;SDS011;11497;52.222;21.246;2023-10-19T08:05:52;33.00;;;20.88;;
22660;SDS011;11497;52.222;21.246;2023-10-19T08:08:20;33.80;;;20.73;;
22660;SDS011;11497;52.222;21.246;2023-10-19T08:10:51;38.33;;;21.65;;
22660;SDS011;11497;52.222;21.246;2023-10-19T08:13:19;42.78;;;23.15;;
22660;SDS011;11497;52.222;21.246;2023-10-19T08:15:47;38.03;;;22.73;;
22660;SDS011;11497;52.222;21.246;2023-10-19T08:18:14;42.33;;;23.88;;
22660;SDS011;11497;52.222;21.246;2023-10-19T08:20:42;39.15;;;22.10;;
22660;SDS011;11497;52.222;21.246;2023-10-19T08:23:12;38.03;;;20.60;;
22660;SDS011;11497;52.222;21.246;2023-10-19T08:25:50;35.80;;;19.45;;
22660;SDS011;11497;52.222;21.246;2023-10-19T08:28:23;31.35;;;18.13;;
22660;SDS011;11497;52.222;21.246;2023-10-19T08:30:52;26.65;;;16.55;;
22660;SDS011;11497;52.222;21.246;2023-10-19T08:33:29;26.00;;;16.35;;
22660;SDS011;11497;52.222;21.246;2023-10-19T08:35:57;26.70;;;15.65;;
22660;SDS011;11497;52.222;21.246;2023-10-19T08:38:27;24.70;;;14.95;;
22660;SDS011;11497;52.222;21.246;2023-10-19T08:40:55;26.33;;;14.75;;
22660;SDS011;11497;52.222;21.246;2023-10-19T08:43:23;24.75;;;13.90;;
22660;SDS011;11497;52.222;21.246;2023-10-19T08:45:53;20.92;;;14.15;;
22660;SDS011;11497;52.222;21.246;2023-10-19T08:48:22;31.30;;;14.77;;
22660;SDS011;11497;52.222;21.246;2023-10-19T08:50:50;24.60;;;13.00;;
22660;SDS011;11497;52.222;21.246;2023-10-19T08:53:19;19.17;;;12.50;;
22660;SDS011;11497;52.222;21.246;2023-10-19T08:55:49;20.17;;;12.35;;
22660;SDS011;11497;52.222;21.246;2023-10-19T08:58:17;19.13;;;12.15;;
22660;SDS011;11497;52.222;21.246;2023-10-19T09:00:47;21.23;;;11.70;;
22660;SDS011;11497;52.222;21.246;2023-10-19T09:03:17;16.45;;;11.40;;
22660;SDS011;11497;52.222;21.246;2023-10-19T09:05:46;17.20;;;11.05;;
22660;SDS011;11497;52.222;21.246;2023-10-19T09:08:15;17.02;;;10.70;;
22660;SDS011;11497;52.222;21.246;2023-10-19T09:10:44;16.85;;;10.50;;
22660;SDS011;11497;52.222;21.246;2023-10-19T09:13:13;15.45;;;10.48;;
22660;SDS011;11497;52.222;21.246;2023-10-19T09:15:43;14.18;;;9.50;;
22660;SDS011;11497;52.222;21.246;2023-10-19T09:18:14;14.75;;;9.48;;
22660;SDS011;11497;52.222;21.246;2023-10-19T09:20:43;14.85;;;8.85;;
22660;SDS011;11497;52.222;21.246;2023-10-19T09:23:21;14.20;;;8.82;;
22660;SDS011;11497;52.222;21.246;2023-10-19T09:25:49;15.95;;;9.98;;
22660;SDS011;11497;52.222;21.246;2023-10-19T09:28:22;15.57;;;9.27;;
22660;SDS011;11497;52.222;21.246;2023-10-19T09:30:52;13.48;;;8.45;;
22660;SDS011;11497;52.222;21.246;2023-10-19T09:33:21;18.10;;;8.93;;
22660;SDS011;11497;52.222;21.246;2023-10-19T09:35:51;16.50;;;9.55;;
22660;SDS011;11497;52.222;21.246;2023-10-19T09:38:23;16.48;;;9.30;;
22660;SDS011;11497;52.222;21.246;2023-10-19T09:40:55;13.93;;;9.35;;
22660;SDS011;11497;52.222;21.246;2023-10-19T09:43:45;13.85;;;9.60;;
22660;SDS011;11497;52.222;21.246;2023-10-19T09:46:20;16.10;;;9.93;;
22660;SDS011;11497;52.222;21.246;2023-10-19T09:48:49;14.45;;;9.27;;
22660;SDS011;11497;52.222;21.246;2023-10-19T09:51:18;15.55;;;9.50;;
22660;SDS011;11497;52.222;21.246;2023-10-19T09:53:51;13.88;;;9.93;;
22660;SDS011;11497;52.222;21.246;2023-10-19T09:56:22;16.48;;;10.18;;
22660;SDS011;11497;52.222;21.246;2023-10-19T09:58:54;14.48;;;9.65;;
22660;SDS011;11497;52.222;21.246;2023-10-19T10:01:23;20.27;;;10.32;;
22660;SDS011;11497;52.222;21.246;2023-10-19T10:03:53;15.15;;;10.38;;
22660;SDS011;11497;52.222;21.246;2023-10-19T10:08:55;15.20;;;9.75;;
22660;SDS011;11497;52.222;21.246;2023-10-19T10:11:24;17.35;;;11.13;;
22660;SDS011;11497;52.222;21.246;2023-10-19T10:13:54;15.95;;;10.60;;
22660;SDS011;11497;52.222;21.246;2023-10-19T10:16:23;16.15;;;10.55;;
22660;SDS011;11497;52.222;21.246;2023-10-19T10:18:55;17.05;;;10.35;;
22660;SDS011;11497;52.222;21.246;2023-10-19T10:21:27;16.80;;;11.40;;
22660;SDS011;11497;52.222;21.246;2023-10-19T10:23:57;17.73;;;11.30;;
22660;SDS011;11497;52.222;21.246;2023-10-19T10:26:27;15.38;;;10.90;;
22660;SDS011;11497;52.222;21.246;2023-10-19T10:31:40;15.80;;;10.98;;
22660;SDS011;11497;52.222;21.246;2023-10-19T10:34:09;20.40;;;10.98;;
22660;SDS011;11497;52.222;21.246;2023-10-19T10:39:25;19.08;;;10.45;;
22660;SDS011;11497;52.222;21.246;2023-10-19T10:41:56;16.15;;;10.18;;
22660;SDS011;11497;52.222;21.246;2023-10-19T10:44:43;16.52;;;9.90;;
22660;SDS011;11497;52.222;21.246;2023-10-19T10:47:15;13.63;;;9.43;;
22660;SDS011;11497;52.222;21.246;2023-10-19T10:52:31;13.05;;;8.98;;
22660;SDS011;11497;52.222;21.246;2023-10-19T10:55:05;15.00;;;9.45;;
22660;SDS011;11497;52.222;21.246;2023-10-19T10:57:34;15.82;;;9.15;;
22660;SDS011;11497;52.222;21.246;2023-10-19T11:00:10;15.88;;;9.55;;
22660;SDS011;11497;52.222;21.246;2023-10-19T11:02:43;14.65;;;8.88;;
22660;SDS011;11497;52.222;21.246;2023-10-19T11:05:13;15.18;;;9.48;;
22660;SDS011;11497;52.222;21.246;2023-10-19T11:08:02;14.07;;;9.27;;
22660;SDS011;11497;52.222;21.246;2023-10-19T11:10:30;14.65;;;9.43;;
22660;SDS011;11497;52.222;21.246;2023-10-19T11:13:04;16.77;;;9.35;;
22660;SDS011;11497;52.222;21.246;2023-10-19T11:15:33;16.95;;;10.10;;
22660;SDS011;11497;52.222;21.246;2023-10-19T11:18:01;13.05;;;9.18;;
22660;SDS011;11497;52.222;21.246;2023-10-19T11:20:28;14.52;;;9.38;;
22660;SDS011;11497;52.222;21.246;2023-10-19T11:22:57;17.48;;;9.70;;
22660;SDS011;11497;52.222;21.246;2023-10-19T11:25:27;15.80;;;10.65;;
22660;SDS011;11497;52.222;21.246;2023-10-19T11:27:56;18.83;;;10.25;;
22660;SDS011;11497;52.222;21.246;2023-10-19T11:30:33;16.48;;;10.18;;
22660;SDS011;11497;52.222;21.246;2023-10-19T11:33:02;15.63;;;10.27;;
22660;SDS011;11497;52.222;21.246;2023-10-19T11:35:30;17.13;;;9.25;;
22660;SDS011;11497;52.222;21.246;2023-10-19T11:37:59;13.68;;;9.77;;
22660;SDS011;11497;52.222;21.246;2023-10-19T11:40:29;17.35;;;9.90;;
22660;SDS011;11497;52.222;21.246;2023-10-19T11:42:57;18.92;;;9.73;;
22660;SDS011;11497;52.222;21.246;2023-10-19T11:45:27;19.17;;;9.98;;
22660;SDS011;11497;52.222;21.246;2023-10-19T11:47:56;15.60;;;10.25;;
22660;SDS011;11497;52.222;21.246;2023-10-19T11:50:24;15.35;;;10.10;;
22660;SDS011;11497;52.222;21.246;2023-10-19T11:52:52;14.50;;;9.52;;
22660;SDS011;11497;52.222;21.246;2023-10-19T11:55:19;15.43;;;9.93;;
22660;SDS011;11497;52.222;21.246;2023-10-19T11:57:48;16.88;;;9.80;;
22660;SDS011;11497;52.222;21.246;2023-10-19T12:00:16;19.45;;;10.30;;
22660;SDS011;11497;52.222;21.246;2023-10-19T12:02:49;14.27;;;9.25;;
22660;SDS011;11497;52.222;21.246;2023-10-19T12:05:19;14.00;;;9.35;;
22660;SDS011;11497;52.222;21.246;2023-10-19T12:07:46;20.52;;;11.63;;
22660;SDS011;11497;52.222;21.246;2023-10-19T12:10:14;22.40;;;12.20;;
22660;SDS011;11497;52.222;21.246;2023-10-19T12:12:42;19.25;;;11.18;;
22660;SDS011;11497;52.222;21.246;2023-10-19T12:17:54;20.08;;;12.13;;
22660;SDS011;11497;52.222;21.246;2023-10-19T12:20:22;18.17;;;12.15;;
22660;SDS011;11497;52.222;21.246;2023-10-19T12:22:50;20.75;;;12.60;;
22660;SDS011;11497;52.222;21.246;2023-10-19T12:25:22;19.55;;;12.05;;
22660;SDS011;11497;52.222;21.246;2023-10-19T12:28:08;19.33;;;11.38;;
22660;SDS011;11497;52.222;21.246;2023-10-19T12:30:41;15.32;;;11.13;;
22660;SDS011;11497;52.222;21.246;2023-10-19T12:33:08;17.60;;;11.73;;
22660;SDS011;11497;52.222;21.246;2023-10-19T12:35:40;17.92;;;11.38;;
22660;SDS011;11497;52.222;21.246;2023-10-19T12:38:12;17.60;;;11.25;;
22660;SDS011;11497;52.222;21.246;2023-10-19T12:40:44;18.95;;;11.32;;
22660;SDS011;11497;52.222;21.246;2023-10-19T12:43:13;20.25;;;11.38;;
22660;SDS011;11497;52.222;21.246;2023-10-19T12:45:41;20.48;;;11.80;;
22660;SDS011;11497;52.222;21.246;2023-10-19T12:48:11;18.77;;;11.35;;
22660;SDS011;11497;52.222;21.246;2023-10-19T12:50:39;18.08;;;12.07;;
22660;SDS011;11497;52.222;21.246;2023-10-19T12:53:07;21.48;;;13.73;;
22660;SDS011;11497;52.222;21.246;2023-10-19T12:55:36;20.92;;;12.38;;
22660;SDS011;11497;52.222;21.246;2023-10-19T12:58:06;18.17;;;11.38;;
22660;SDS011;11497;52.222;21.246;2023-10-19T13:00:36;19.17;;;11.57;;
22660;SDS011;11497;52.222;21.246;2023-10-19T13:03:16;18.80;;;11.75;;
22660;SDS011;11497;52.222;21.246;2023-10-19T13:05:45;24.45;;;11.27;;
22660;SDS011;11497;52.222;21.246;2023-10-19T13:08:14;29.52;;;11.57;;
22660;SDS011;11497;52.222;21.246;2023-10-19T13:10:43;21.10;;;11.07;;
22660;SDS011;11497;52.222;21.246;2023-10-19T13:13:12;16.27;;;10.75;;
22660;SDS011;11497;52.222;21.246;2023-10-19T13:15:42;20.90;;;11.68;;
22660;SDS011;11497;52.222;21.246;2023-10-19T13:18:12;19.58;;;11.50;;
22660;SDS011;11497;52.222;21.246;2023-10-19T13:20:40;17.10;;;10.27;;
22660;SDS011;11497;52.222;21.246;2023-10-19T13:23:10;19.10;;;10.80;;
22660;SDS011;11497;52.222;21.246;2023-10-19T13:25:39;19.10;;;10.40;;
22660;SDS011;11497;52.222;21.246;2023-10-19T13:28:16;17.42;;;11.10;;
22660;SDS011;11497;52.222;21.246;2023-10-19T13:30:47;20.02;;;10.90;;
22660;SDS011;11497;52.222;21.246;2023-10-19T13:33:16;20.65;;;11.10;;
22660;SDS011;11497;52.222;21.246;2023-10-19T13:35:45;17.23;;;11.50;;
22660;SDS011;11497;52.222;21.246;2023-10-19T13:38:15;21.98;;;11.13;;
22660;SDS011;11497;52.222;21.246;2023-10-19T13:40:44;24.45;;;11.82;;
22660;SDS011;11497;52.222;21.246;2023-10-19T13:43:12;18.63;;;11.15;;
22660;SDS011;11497;52.222;21.246;2023-10-19T13:45:45;19.08;;;11.40;;
22660;SDS011;11497;52.222;21.246;2023-10-19T13:48:14;18.00;;;10.90;;
22660;SDS011;11497;52.222;21.246;2023-10-19T13:50:47;24.15;;;10.85;;
22660;SDS011;11497;52.222;21.246;2023-10-19T13:53:16;16.30;;;10.05;;
22660;SDS011;11497;52.222;21.246;2023-10-19T13:55:44;16.95;;;9.85;;
22660;SDS011;11497;52.222;21.246;2023-10-19T13:58:12;21.83;;;11.55;;
22660;SDS011;11497;52.222;21.246;2023-10-19T14:00:41;18.88;;;11.07;;
22660;SDS011;11497;52.222;21.246;2023-10-19T14:03:11;19.67;;;10.68;;
22660;SDS011;11497;52.222;21.246;2023-10-19T14:05:44;18.20;;;10.97;;
22660;SDS011;11497;52.222;21.246;2023-10-19T14:08:17;21.27;;;11.40;;
22660;SDS011;11497;52.222;21.246;2023-10-19T14:10:45;18.60;;;11.27;;
22660;SDS011;11497;52.222;21.246;2023-10-19T14:13:13;21.42;;;10.98;;
22660;SDS011;11497;52.222;21.246;2023-10-19T14:15:41;22.60;;;12.25;;
22660;SDS011;11497;52.222;21.246;2023-10-19T14:18:09;21.98;;;13.70;;
22660;SDS011;11497;52.222;21.246;2023-10-19T14:20:39;21.48;;;12.70;;
22660;SDS011;11497;52.222;21.246;2023-10-19T14:23:07;22.48;;;12.50;;
22660;SDS011;11497;52.222;21.246;2023-10-19T14:25:37;24.23;;;12.50;;
22660;SDS011;11497;52.222;21.246;2023-10-19T14:28:09;23.15;;;12.30;;
22660;SDS011;11497;52.222;21.246;2023-10-19T14:30:39;24.42;;;13.27;;
22660;SDS011;11497;52.222;21.246;2023-10-19T14:33:07;24.42;;;13.82;;
22660;SDS011;11497;52.222;21.246;2023-10-19T14:35:38;23.50;;;13.25;;
22660;SDS011;11497;52.222;21.246;2023-10-19T14:38:09;24.08;;;13.38;;
22660;SDS011;11497;52.222;21.246;2023-10-19T14:40:40;25.90;;;13.55;;
22660;SDS011;11497;52.222;21.246;2023-10-19T14:43:15;25.67;;;12.85;;
22660;SDS011;11497;52.222;21.246;2023-10-19T14:45:43;21.48;;;13.23;;